Pencader, United Kingdom
Current Conditions -  °F | °C
As of 5:50 PM on Sunday 25 Jan 2015 (Local Time) from EGOP Reporting Station
Overcast Overcast  
Wind Chill: 42°   Ceiling: 200
Heat Index: 48°   Visibility: 0.68mi
Dew Point: 48°   Wind: 17mph
Humidity: 100%   Direction: 210°SSW
Pressure: 30.33"   Gusts: NA
Location:  52°N, 4.26°W
Report Text: EGOP 251750Z AUTO 21015KT 1100 // OVC002/// 09/09 Q1027
Loading
Personal Weather Stations






























Interactive Weather Map New forecast layout! Learn more

10-Day Weather Forecast

Advertisements
Track Severe Weather on mobile